Time;durP1;ratioP1;P1;durP2;ratioP2;P2;SDS_P1;SDS_P2;PMS_P1;PMS_P2;Temp;Humidity;BMP_temperature;BMP_pressure;BME280_temperature;BME280_humidity;BME280_pressure;Samples;Min_cycle;Max_cycle;Signal;HPM_P1;HPM_P2
2022/05/07 00:02:06;;;;;;;4.90;2.22;;;15.90;89.70;;;;;;4992326;28;20030;-67
2022/05/07 00:04:32;;;;;;;4.18;2.25;;;15.90;89.70;;;;;;4991576;28;20061;-65
2022/05/07 00:06:58;;;;;;;5.88;2.10;;;15.90;90.00;;;;;;4992787;28;20023;-65
2022/05/07 00:09:24;;;;;;;3.90;2.30;;;15.90;90.30;;;;;;4990788;28;20157;-65
2022/05/07 00:11:50;;;;;;;4.22;2.25;;;15.90;90.30;;;;;;4991260;28;20065;-64
2022/05/07 00:14:16;;;;;;;5.20;2.20;;;15.80;90.30;;;;;;4990620;28;20031;-65
2022/05/07 00:19:25;;;;;;;4.13;1.90;;;15.80;90.20;;;;;;4992348;28;20148;-65
2022/05/07 00:21:51;;;;;;;3.30;2.05;;;15.80;90.30;;;;;;4991278;28;20388;-65
2022/05/07 00:24:17;;;;;;;3.63;2.35;;;15.70;90.30;;;;;;4991931;28;20121;-65
2022/05/07 00:26:44;;;;;;;5.80;2.45;;;15.70;90.60;;;;;;4992418;28;20026;-64
2022/05/07 00:29:09;;;;;;;4.75;2.22;;;15.70;90.50;;;;;;4989914;28;20033;-66
2022/05/07 00:31:35;;;;;;;3.22;2.00;;;15.60;90.40;;;;;;4974423;28;20479;-64
2022/05/07 00:34:01;;;;;;;3.40;2.03;;;15.60;90.50;;;;;;4992172;28;20095;-73
2022/05/07 00:36:27;;;;;;;3.72;1.65;;;15.60;90.50;;;;;;4992501;28;20098;-65
2022/05/07 00:38:52;;;;;;;2.30;1.70;;;15.70;90.60;;;;;;4992141;28;20026;-65
2022/05/07 00:41:19;;;;;;;5.55;2.28;;;15.50;90.60;;;;;;4990186;28;20459;-64
2022/05/07 00:43:44;;;;;;;5.35;1.80;;;15.50;90.70;;;;;;4992214;28;20050;-64
2022/05/07 00:46:12;;;;;;;2.55;1.92;;;15.50;90.70;;;;;;4990347;28;20104;-66
2022/05/07 00:48:38;;;;;;;3.05;1.67;;;15.50;90.80;;;;;;4991242;28;20430;-64
2022/05/07 00:53:50;;;;;;;2.28;1.42;;;15.60;90.70;;;;;;4992030;28;20053;-64
2022/05/07 00:56:17;;;;;;;2.30;1.92;;;15.50;91.10;;;;;;4990529;28;20089;-64
2022/05/07 00:58:42;;;;;;;3.38;1.63;;;15.40;91.00;;;;;;4990612;28;20041;-64
2022/05/07 01:01:08;;;;;;;4.78;1.70;;;15.30;91.10;;;;;;4990122;28;20030;-65
2022/05/07 01:03:35;;;;;;;4.28;1.90;;;15.30;91.10;;;;;;4992313;28;20559;-65
2022/05/07 01:06:01;;;;;;;6.30;1.80;;;15.30;91.00;;;;;;4990607;28;20023;-64
2022/05/07 01:08:30;;;;;;;2.47;1.42;;;15.30;90.90;;;;;;4990203;28;20030;-65
2022/05/07 01:10:56;;;;;;;4.53;1.83;;;15.30;90.90;;;;;;4991936;28;20062;-66
2022/05/07 01:13:22;;;;;;;6.38;2.47;;;15.20;90.90;;;;;;4991320;28;20129;-64
2022/05/07 01:15:54;;;;;;;7.07;2.20;;;15.20;90.90;;;;;;4991983;28;20547;-64
2022/05/07 01:18:20;;;;;;;4.18;1.70;;;15.20;91.00;;;;;;4991172;28;20427;-63
2022/05/07 01:20:45;;;;;;;6.32;1.52;;;15.10;91.20;;;;;;4991882;28;20058;-65
2022/05/07 01:23:12;;;;;;;6.90;1.92;;;15.10;91.40;;;;;;4990998;28;20088;-65
2022/05/07 01:25:37;;;;;;;4.40;2.03;;;15.10;91.60;;;;;;4991901;28;20161;-64
2022/05/07 01:28:04;;;;;;;3.05;1.83;;;15.10;91.40;;;;;;4990357;28;20121;-64
2022/05/07 01:30:30;;;;;;;4.55;2.45;;;15.00;91.50;;;;;;4990651;28;20437;-65
2022/05/07 01:32:56;;;;;;;3.42;1.90;;;14.70;91.80;;;;;;4989877;28;20196;-64
2022/05/07 01:35:22;;;;;;;3.30;2.25;;;14.70;92.00;;;;;;4989429;28;20408;-65
2022/05/07 01:37:47;;;;;;;9.52;2.72;;;14.60;92.00;;;;;;4991075;28;20026;-64
2022/05/07 01:40:13;;;;;;;7.57;1.92;;;14.50;92.10;;;;;;4991056;28;20028;-64
2022/05/07 01:42:42;;;;;;;3.25;2.13;;;14.60;92.20;;;;;;4991342;28;20034;-63
2022/05/07 01:45:08;;;;;;;3.92;2.55;;;14.40;92.60;;;;;;4991587;28;20033;-65
2022/05/07 01:50:25;;;;;;;4.13;1.90;;;14.40;92.60;;;;;;4990872;28;20050;-65
2022/05/07 01:52:50;;;;;;;5.80;2.30;;;14.40;92.40;;;;;;4990152;28;20034;-65
2022/05/07 01:55:16;;;;;;;3.95;2.05;;;14.40;92.30;;;;;;4989879;28;20035;-65
2022/05/07 01:57:42;;;;;;;5.47;1.90;;;14.50;92.30;;;;;;4990616;28;20031;-64
2022/05/07 02:00:08;;;;;;;2.70;1.58;;;14.50;92.60;;;;;;4991158;28;20367;-66
2022/05/07 02:02:34;;;;;;;7.32;1.92;;;14.40;92.90;;;;;;4991670;28;20038;-64
2022/05/07 02:05:00;;;;;;;6.72;2.50;;;14.40;92.90;;;;;;4991398;28;20537;-64
2022/05/07 02:07:26;;;;;;;5.53;2.38;;;14.40;92.90;;;;;;4992392;28;20525;-65
2022/05/07 02:09:52;;;;;;;5.68;2.45;;;14.40;92.90;;;;;;4994835;28;20062;-64
2022/05/07 02:12:17;;;;;;;3.13;2.17;;;14.40;93.00;;;;;;4994099;28;20022;-64
2022/05/07 02:14:43;;;;;;;5.63;2.90;;;14.40;93.00;;;;;;4994752;28;20060;-64
2022/05/07 02:17:09;;;;;;;14.38;8.35;;;14.40;93.20;;;;;;4992984;28;20404;-66
2022/05/07 02:19:35;;;;;;;16.45;8.55;;;14.30;93.20;;;;;;4994290;28;20061;-65
2022/05/07 02:22:00;;;;;;;8.32;4.15;;;14.40;93.20;;;;;;4994494;28;20038;-65
2022/05/07 02:24:27;;;;;;;8.15;4.93;;;14.30;92.90;;;;;;4994774;28;20024;-65
2022/05/07 02:26:52;;;;;;;4.43;2.10;;;14.30;93.00;;;;;;4994807;28;20022;-64
2022/05/07 02:29:18;;;;;;;4.40;2.53;;;14.30;93.00;;;;;;4993913;28;20033;-65
2022/05/07 02:32:03;;;;;;;7.82;2.83;;;14.30;92.90;;;;;;4994224;28;20041;-66
2022/05/07 02:34:32;;;;;;;5.70;3.05;;;14.40;92.90;;;;;;4994037;28;20598;-64
2022/05/07 02:36:59;;;;;;;6.60;2.78;;;14.40;93.00;;;;;;4994332;28;20050;-65
2022/05/07 02:39:24;;;;;;;4.93;2.35;;;14.40;93.00;;;;;;4993565;28;20030;-64
2022/05/07 02:44:34;;;;;;;4.43;2.00;;;14.30;93.20;;;;;;4994662;28;20117;-66
2022/05/07 02:47:00;;;;;;;4.15;2.00;;;14.30;93.40;;;;;;4992959;28;20054;-65
2022/05/07 02:49:25;;;;;;;7.32;3.05;;;14.10;93.80;;;;;;4993475;28;20137;-65
2022/05/07 02:51:51;;;;;;;6.50;3.42;;;14.10;94.10;;;;;;4994037;28;20109;-64
2022/05/07 02:54:17;;;;;;;3.72;2.55;;;14.20;93.90;;;;;;4993507;28;20084;-64
2022/05/07 02:56:42;;;;;;;5.82;2.50;;;14.10;94.30;;;;;;4994103;28;20105;-64
2022/05/07 02:59:08;;;;;;;6.43;3.40;;;14.10;94.30;;;;;;4994040;28;20035;-64
2022/05/07 03:01:34;;;;;;;6.85;2.75;;;14.10;94.50;;;;;;4993016;28;20026;-64
2022/05/07 03:03:59;;;;;;;5.75;2.28;;;14.10;94.80;;;;;;4992620;28;20030;-63
2022/05/07 03:06:25;;;;;;;3.00;2.33;;;13.90;95.10;;;;;;4992893;28;20034;-64
2022/05/07 03:08:52;;;;;;;5.10;2.95;;;13.90;95.20;;;;;;4993742;28;20121;-64
2022/05/07 03:11:18;;;;;;;4.90;3.47;;;13.80;95.20;;;;;;4992754;28;20030;-64
2022/05/07 03:13:43;;;;;;;8.50;3.50;;;13.80;95.50;;;;;;4993321;28;20053;-64
2022/05/07 03:16:09;;;;;;;5.90;4.07;;;13.90;95.70;;;;;;4992225;28;20076;-65
2022/05/07 03:18:35;;;;;;;5.07;3.50;;;13.90;95.60;;;;;;4991910;28;20110;-65
2022/05/07 03:21:01;;;;;;;5.88;2.97;;;14.00;95.40;;;;;;4991884;28;20476;-64
2022/05/07 03:23:27;;;;;;;4.13;2.90;;;14.00;95.10;;;;;;4992787;28;20059;-64
2022/05/07 03:25:53;;;;;;;2.78;2.10;;;13.90;95.00;;;;;;4993437;28;20437;-64
2022/05/07 03:28:19;;;;;;;4.55;2.50;;;13.80;95.20;;;;;;4991244;28;20448;-64
2022/05/07 03:30:45;;;;;;;4.72;1.88;;;13.80;95.40;;;;;;4991800;28;20112;-64
2022/05/07 03:33:10;;;;;;;3.95;2.55;;;13.70;95.50;;;;;;4993402;28;20444;-64
2022/05/07 03:35:36;;;;;;;5.38;2.53;;;13.70;96.10;;;;;;4991333;28;20081;-64
2022/05/07 03:38:02;;;;;;;4.60;3.05;;;13.70;96.00;;;;;;4991903;28;20109;-64
2022/05/07 03:40:28;;;;;;;4.20;3.15;;;13.60;96.40;;;;;;4992267;28;20033;-64
2022/05/07 03:42:54;;;;;;;5.30;2.58;;;13.50;96.50;;;;;;4992942;28;20451;-64
2022/05/07 03:45:20;;;;;;;5.15;3.10;;;13.50;96.70;;;;;;4992572;28;20030;-64
2022/05/07 03:47:46;;;;;;;6.68;3.30;;;13.40;96.80;;;;;;4993180;28;20037;-64
2022/05/07 03:50:12;;;;;;;10.93;3.10;;;13.30;97.00;;;;;;4993767;28;20420;-64
2022/05/07 03:55:22;;;;;;;5.88;3.30;;;13.40;97.30;;;;;;4992157;28;20125;-64
2022/05/07 03:57:48;;;;;;;6.25;3.67;;;13.50;97.30;;;;;;4991498;28;20061;-64
2022/05/07 04:00:14;;;;;;;6.53;2.95;;;13.50;97.30;;;;;;4992433;28;20080;-75
2022/05/07 04:02:40;;;;;;;4.65;3.47;;;13.50;97.60;;;;;;4991631;28;20478;-64
2022/05/07 04:05:06;;;;;;;5.90;3.13;;;13.40;97.90;;;;;;4991523;28;20080;-64
2022/05/07 04:07:32;;;;;;;3.75;2.78;;;13.50;98.10;;;;;;4990644;28;20030;-64
2022/05/07 04:09:57;;;;;;;8.77;3.17;;;13.50;98.00;;;;;;4992129;28;20034;-65
2022/05/07 04:12:23;;;;;;;10.55;4.03;;;13.50;98.10;;;;;;4990444;28;20081;-64
2022/05/07 04:14:49;;;;;;;5.40;3.30;;;13.50;98.10;;;;;;4992826;28;20105;-64
2022/05/07 04:17:15;;;;;;;4.78;3.75;;;13.50;98.20;;;;;;5002685;28;20076;-73
2022/05/07 04:19:40;;;;;;;4.50;2.55;;;13.50;98.60;;;;;;5009431;28;20336;-59
2022/05/07 04:22:06;;;;;;;5.28;2.20;;;15.00;99.90;;;;;;5012180;28;20037;-58
2022/05/07 04:24:36;;;;;;;6.63;2.15;;;16.20;99.90;;;;;;5011542;28;20036;-58
2022/05/07 04:27:02;;;;;;;5.75;3.00;;;16.60;99.90;;;;;;5011758;28;20026;-58
2022/05/07 04:29:28;;;;;;;2.33;2.13;;;16.60;99.60;;;;;;5010380;28;20040;-58
2022/05/07 04:31:53;;;;;;;4.47;2.63;;;16.80;99.90;;;;;;5010370;28;20340;-58
2022/05/07 04:34:19;;;;;;;3.58;2.13;;;16.80;97.40;;;;;;5010927;28;20045;-59
2022/05/07 04:36:44;;;;;;;11.35;3.13;;;16.70;98.00;;;;;;5010483;28;20409;-71
2022/05/07 04:39:10;;;;;;;4.47;2.58;;;16.40;96.40;;;;;;5010695;28;20050;-65
2022/05/07 04:41:36;;;;;;;4.43;3.08;;;15.50;96.00;;;;;;5010977;28;20561;-65
2022/05/07 04:44:01;;;;;;;5.32;3.35;;;14.90;97.10;;;;;;5010359;28;20076;-66
2022/05/07 04:46:27;;;;;;;7.75;3.35;;;14.60;97.30;;;;;;5009798;28;20076;-67
2022/05/07 04:48:53;;;;;;;4.68;3.33;;;14.30;98.20;;;;;;5010251;28;20491;-65
2022/05/07 04:51:19;;;;;;;4.82;3.33;;;14.20;98.50;;;;;;5010692;28;20145;-66
2022/05/07 04:53:45;;;;;;;4.63;3.05;;;14.00;99.20;;;;;;5011504;28;20061;-65
2022/05/07 04:56:11;;;;;;;6.20;3.45;;;14.00;99.00;;;;;;5011562;28;20068;-64
2022/05/07 04:58:36;;;;;;;5.82;3.00;;;14.10;98.70;;;;;;5004917;28;20331;-65
2022/05/07 05:01:02;;;;;;;4.68;3.17;;;14.10;99.10;;;;;;5011193;28;20387;-65
2022/05/07 05:03:28;;;;;;;6.80;3.63;;;14.10;99.10;;;;;;5009798;28;20057;-64
2022/05/07 05:05:53;;;;;;;6.95;3.05;;;14.20;98.80;;;;;;5007744;28;20428;-64
2022/05/07 05:08:19;;;;;;;5.18;3.72;;;14.30;98.60;;;;;;5011038;28;20041;-64
2022/05/07 05:10:45;;;;;;;4.82;3.67;;;14.30;98.10;;;;;;5010124;28;20431;-64
2022/05/07 05:13:11;;;;;;;6.82;3.17;;;14.10;98.30;;;;;;5011581;28;20120;-65
2022/05/07 05:15:37;;;;;;;6.10;2.97;;;14.20;98.40;;;;;;5010823;28;20157;-65
2022/05/07 05:18:03;;;;;;;4.82;2.78;;;14.30;98.20;;;;;;5009546;28;20395;-64
2022/05/07 05:20:29;;;;;;;4.80;2.70;;;14.30;98.30;;;;;;5008855;28;20121;-65
2022/05/07 05:22:55;;;;;;;5.68;2.83;;;14.20;98.00;;;;;;5009733;28;20057;-65
2022/05/07 05:25:21;;;;;;;6.03;3.35;;;14.30;98.00;;;;;;5009238;28;20111;-65
2022/05/07 05:27:47;;;;;;;2.90;2.60;;;14.20;98.20;;;;;;5011243;28;20128;-65
2022/05/07 05:30:13;;;;;;;8.13;3.20;;;14.30;98.30;;;;;;5012227;28;20026;-64
2022/05/07 05:32:39;;;;;;;4.80;2.72;;;14.50;97.80;;;;;;5010138;28;20564;-64
2022/05/07 05:35:05;;;;;;;3.78;2.50;;;14.50;97.40;;;;;;5010649;28;20396;-64
2022/05/07 05:37:31;;;;;;;4.68;3.00;;;14.30;97.60;;;;;;5010287;28;20137;-67
2022/05/07 05:39:56;;;;;;;5.78;2.40;;;14.30;97.50;;;;;;5009801;28;20380;-64
2022/05/07 05:42:22;;;;;;;2.88;2.22;;;14.30;97.40;;;;;;5010615;28;20387;-65
2022/05/07 05:44:48;;;;;;;3.03;2.30;;;14.00;97.90;;;;;;5014973;28;20429;-64
2022/05/07 05:47:14;;;;;;;4.30;2.65;;;14.20;98.00;;;;;;5011597;28;20364;-64
2022/05/07 05:49:40;;;;;;;5.50;2.50;;;14.20;97.70;;;;;;5014008;28;20531;-64
2022/05/07 05:52:06;;;;;;;5.70;2.38;;;14.30;97.50;;;;;;5013771;28;20479;-64
2022/05/07 05:54:33;;;;;;;6.70;2.10;;;14.10;97.50;;;;;;5014256;28;20230;-68
2022/05/07 05:56:59;;;;;;;3.60;2.20;;;14.40;99.90;;;;;;5013097;28;20025;-69
2022/05/07 05:59:26;;;;;;;2.80;2.10;;;14.90;99.90;;;;;;5012527;28;20057;-70
2022/05/07 06:01:52;;;;;;;3.45;1.83;;;15.30;99.90;;;;;;5013072;28;20073;-68
2022/05/07 06:04:17;;;;;;;3.67;2.13;;;15.70;99.90;;;;;;5013269;28;20429;-70
2022/05/07 06:06:43;;;;;;;3.25;2.15;;;16.10;98.90;;;;;;5012827;28;20120;-65
2022/05/07 06:09:09;;;;;;;7.93;2.33;;;16.50;97.80;;;;;;5014305;28;20022;-66
2022/05/07 06:11:35;;;;;;;5.65;2.20;;;16.20;96.00;;;;;;5012597;28;20042;-66
2022/05/07 06:14:01;;;;;;;3.08;2.10;;;15.70;95.70;;;;;;5013054;28;20382;-65
2022/05/07 06:16:26;;;;;;;2.78;2.00;;;15.40;95.60;;;;;;5012128;28;20026;-66
2022/05/07 06:18:52;;;;;;;4.78;2.40;;;15.40;95.40;;;;;;5013164;28;20057;-67
2022/05/07 06:21:18;;;;;;;5.43;2.58;;;15.10;95.50;;;;;;5013501;28;20387;-65
2022/05/07 06:23:44;;;;;;;5.57;1.92;;;15.10;95.80;;;;;;5011956;28;20033;-65
2022/05/07 06:28:54;;;;;;;3.50;2.15;;;15.40;95.80;;;;;;5012654;28;20041;-64
2022/05/07 06:31:20;;;;;;;6.45;2.13;;;15.50;95.70;;;;;;5011682;28;20038;-65
2022/05/07 06:33:45;;;;;;;6.43;2.55;;;15.40;95.60;;;;;;5009811;28;20048;-65
2022/05/07 06:36:11;;;;;;;4.10;2.25;;;15.30;95.40;;;;;;5002349;28;20038;-65
2022/05/07 06:38:37;;;;;;;3.78;1.90;;;15.50;95.30;;;;;;5003550;28;20028;-67
2022/05/07 06:41:05;;;;;;;3.05;2.10;;;15.70;95.30;;;;;;5009968;28;20034;-64
2022/05/07 06:43:32;;;;;;;6.22;2.08;;;15.80;95.00;;;;;;5012487;28;20471;-65
2022/05/07 06:45:59;;;;;;;5.13;2.08;;;15.80;95.10;;;;;;5013594;28;20527;-64
2022/05/07 06:48:26;;;;;;;3.38;2.10;;;16.10;94.90;;;;;;5012084;28;20025;-65
2022/05/07 06:50:52;;;;;;;2.08;1.88;;;16.00;94.90;;;;;;5013424;28;20072;-65
2022/05/07 06:53:18;;;;;;;6.47;1.83;;;16.30;94.80;;;;;;5011205;28;20540;-63
2022/05/07 06:55:58;;;;;;;3.03;2.10;;;16.20;94.90;;;;;;5011138;28;20168;-64
2022/05/07 06:58:26;;;;;;;3.58;2.45;;;16.30;94.60;;;;;;5012809;28;20030;-71
2022/05/07 07:00:52;;;;;;;2.60;1.83;;;16.40;94.90;;;;;;5013569;28;20101;-65
2022/05/07 07:03:18;;;;;;;4.18;2.15;;;16.50;94.20;;;;;;5012456;28;20029;-66
2022/05/07 07:05:44;;;;;;;6.13;2.38;;;16.70;94.20;;;;;;5011378;28;20026;-65
2022/05/07 07:08:13;;;;;;;1.85;1.60;;;16.70;94.20;;;;;;5011303;28;20367;-64
2022/05/07 07:10:42;;;;;;;4.25;2.72;;;17.00;94.00;;;;;;5011210;28;20022;-64
2022/05/07 07:13:08;;;;;;;8.90;2.75;;;17.00;93.90;;;;;;5011555;28;20037;-65
2022/05/07 07:15:36;;;;;;;4.15;2.47;;;17.10;93.90;;;;;;5010360;28;20125;-65
2022/05/07 07:18:04;;;;;;;8.63;2.88;;;17.30;93.50;;;;;;5011733;28;20380;-64
2022/05/07 07:20:30;;;;;;;12.10;3.83;;;17.10;93.80;;;;;;5012604;28;20042;-64
2022/05/07 07:22:56;;;;;;;3.33;2.28;;;17.50;93.60;;;;;;5011148;28;20041;-65
2022/05/07 07:25:22;;;;;;;6.70;2.70;;;17.70;93.50;;;;;;5013150;28;20486;-64
2022/05/07 07:27:47;;;;;;;5.00;2.78;;;17.60;93.60;;;;;;5014513;28;20482;-66
2022/05/07 07:30:13;;;;;;;7.15;2.33;;;17.70;92.80;;;;;;5013783;28;20458;-66
2022/05/07 07:32:39;;;;;;;3.33;2.03;;;17.50;93.10;;;;;;5006247;28;20125;-66
2022/05/07 07:35:05;;;;;;;5.30;2.42;;;17.70;93.20;;;;;;5008721;28;20092;-66
2022/05/07 07:37:32;;;;;;;18.25;3.13;;;18.20;93.10;;;;;;5009928;28;20037;-66
2022/05/07 07:40:00;;;;;;;12.00;2.42;;;18.70;92.50;;;;;;5003373;28;20038;-65
2022/05/07 07:42:27;;;;;;;3.78;2.08;;;18.70;92.00;;;;;;4995809;28;21252;-66
2022/05/07 07:50:21;;;;;;;2.67;1.48;;;19.20;91.40;;;;;;5012371;28;20430;-61
2022/05/07 07:52:48;;;;;;;4.30;1.90;;;19.80;95.40;;;;;;5010223;28;20321;-61
2022/05/07 07:55:14;;;;;;;5.45;2.00;;;20.20;93.70;;;;;;5012655;28;20104;-62
2022/05/07 07:57:39;;;;;;;3.65;1.60;;;20.50;92.90;;;;;;5006564;28;20038;-61
2022/05/07 08:00:06;;;;;;;2.55;1.92;;;20.50;91.60;;;;;;5008544;28;20529;-59
2022/05/07 08:02:31;;;;;;;3.42;1.92;;;20.50;93.30;;;;;;5008649;28;20117;-62
2022/05/07 08:04:57;;;;;;;7.20;1.80;;;21.10;93.80;;;;;;5009720;28;20057;-66
2022/05/07 08:12:52;;;;;;;5.82;1.70;;;21.70;91.10;;;;;;5011095;28;20137;-67
2022/05/07 08:15:17;;;;;;;5.43;1.65;;;22.00;88.40;;;;;;5010186;28;20117;-67
2022/05/07 08:17:43;;;;;;;7.93;2.13;;;22.10;90.00;;;;;;5005473;28;20377;-65
2022/05/07 08:20:11;;;;;;;4.20;1.88;;;22.30;88.20;;;;;;4990939;28;20050;-67
2022/05/07 08:22:37;;;;;;;5.05;2.38;;;22.70;89.20;;;;;;5001682;28;20041;-66
2022/05/07 08:25:02;;;;;;;4.28;1.90;;;23.00;87.70;;;;;;5010460;28;20026;-66
2022/05/07 08:27:28;;;;;;;6.30;2.00;;;23.10;86.00;;;;;;5011865;28;20378;-66
2022/05/07 08:29:57;;;;;;;5.30;1.85;;;23.40;86.80;;;;;;5009385;28;20026;-65
2022/05/07 08:32:22;;;;;;;3.72;2.17;;;23.50;85.10;;;;;;5010144;28;20069;-65
2022/05/07 08:34:48;;;;;;;7.63;2.20;;;23.10;83.40;;;;;;5009658;28;20421;-66
2022/05/07 08:37:15;;;;;;;7.38;2.03;;;23.10;85.70;;;;;;5010374;28;20030;-67
2022/05/07 08:39:40;;;;;;;5.30;2.25;;;23.30;83.60;;;;;;5010383;28;20026;-66
2022/05/07 08:42:07;;;;;;;9.98;2.58;;;23.60;83.90;;;;;;5009997;28;20148;-69
2022/05/07 08:44:33;;;;;;;7.32;2.38;;;23.90;91.30;;;;;;5010310;28;20033;-70
2022/05/07 08:47:00;;;;;;;6.20;1.98;;;24.00;88.40;;;;;;5009437;28;20115;-71
2022/05/07 08:49:25;;;;;;;3.28;1.52;;;24.10;83.20;;;;;;5010341;28;20034;-66
2022/05/07 08:51:55;;;;;;;6.85;2.45;;;24.00;85.50;;;;;;5009102;28;20141;-65
2022/05/07 08:54:20;;;;;;;8.45;2.30;;;23.70;80.30;;;;;;5008882;28;20140;-66
2022/05/07 08:56:46;;;;;;;2.17;1.75;;;23.70;79.70;;;;;;5008650;28;20034;-67
2022/05/07 08:59:13;;;;;;;3.35;1.70;;;24.10;79.50;;;;;;5010908;28;20022;-65
2022/05/07 09:01:38;;;;;;;6.95;1.70;;;23.40;78.70;;;;;;5010033;28;20124;-66
2022/05/07 09:04:10;;;;;;;4.35;1.90;;;23.90;79.30;;;;;;5008524;28;20120;-66
2022/05/07 09:06:36;;;;;;;2.50;1.10;;;23.70;76.80;;;;;;5009889;28;20121;-67
2022/05/07 09:09:05;;;;;;;4.22;1.65;;;23.90;76.00;;;;;;5009300;28;20049;-66
2022/05/07 09:11:45;;;;;;;3.42;1.40;;;23.70;77.90;;;;;;5009007;28;20030;-65
2022/05/07 09:14:11;;;;;;;2.00;1.30;;;24.40;78.10;;;;;;5008708;28;20033;-66
2022/05/07 09:16:45;;;;;;;4.32;1.52;;;25.00;77.50;;;;;;5008033;28;20026;-67
2022/05/07 09:19:30;;;;;;;2.63;1.60;;;25.20;77.00;;;;;;5010234;28;20092;-67
2022/05/07 09:22:09;;;;;;;3.33;1.27;;;25.40;71.20;;;;;;5010496;28;20041;-65
2022/05/07 09:24:36;;;;;;;2.38;1.00;;;25.30;72.20;;;;;;5010137;28;20076;-67
2022/05/07 09:27:03;;;;;;;2.30;1.10;;;25.60;72.50;;;;;;5008079;28;20471;-66
2022/05/07 09:29:30;;;;;;;3.95;1.15;;;26.00;71.60;;;;;;5009079;28;20573;-68
2022/05/07 09:32:13;;;;;;;1.70;1.00;;;26.20;72.50;;;;;;5008751;28;20034;-66
2022/05/07 09:37:36;;;;;;;2.50;1.13;;;26.30;71.10;;;;;;5009833;28;20052;-70
2022/05/07 09:40:07;;;;;;;9.90;1.50;;;26.60;71.80;;;;;;5010585;28;20080;-66
2022/05/07 09:42:34;;;;;;;3.78;1.33;;;26.70;70.10;;;;;;5008868;28;20030;-66
2022/05/07 09:45:03;;;;;;;2.75;0.80;;;26.80;70.60;;;;;;5008975;28;20030;-67
2022/05/07 09:47:30;;;;;;;4.85;1.15;;;26.90;71.00;;;;;;5009209;28;20030;-66
2022/05/07 09:58:20;;;;;;;5.15;1.20;;;27.10;68.80;;;;;;5010510;28;20037;-66
2022/05/07 10:01:11;;;;;;;2.53;1.30;;;27.40;67.40;;;;;;5009711;28;20364;-67
2022/05/07 10:03:58;;;;;;;3.35;0.85;;;27.70;67.10;;;;;;5008506;28;20121;-68
2022/05/07 10:06:43;;;;;;;4.60;0.90;;;27.80;65.50;;;;;;5008439;28;20088;-67
2022/05/07 10:09:30;;;;;;;5.03;0.98;;;28.00;65.00;;;;;;5009697;28;20552;-66
2022/05/07 10:11:57;;;;;;;5.53;1.17;;;28.30;61.60;;;;;;5009298;28;20466;-66
2022/05/07 10:14:31;;;;;;;3.00;1.15;;;28.40;61.90;;;;;;5008752;28;20038;-66
2022/05/07 10:17:07;;;;;;;7.53;1.30;;;28.20;60.90;;;;;;5008218;28;20026;-66
2022/05/07 10:19:42;;;;;;;5.43;1.00;;;28.00;60.30;;;;;;5008572;28;20063;-68
2022/05/07 10:22:23;;;;;;;4.55;1.73;;;27.60;60.10;;;;;;5008925;28;20088;-67
2022/05/07 10:25:08;;;;;;;2.28;1.40;;;28.20;60.40;;;;;;5008252;28;20053;-67
2022/05/07 10:27:36;;;;;;;4.45;1.55;;;28.60;60.00;;;;;;5009589;28;20026;-66
2022/05/07 10:30:09;;;;;;;5.57;0.70;;;28.80;59.50;;;;;;5012892;28;20120;-68
2022/05/07 10:32:48;;;;;;;1.55;0.82;;;28.80;58.60;;;;;;5011992;28;20026;-67
2022/05/07 10:35:17;;;;;;;6.80;1.27;;;29.00;58.80;;;;;;5013361;28;20125;-67
2022/05/07 10:37:43;;;;;;;1.30;0.70;;;29.30;58.70;;;;;;5011571;28;20032;-68
2022/05/07 10:40:12;;;;;;;8.30;0.80;;;29.50;59.60;;;;;;5012616;28;20026;-66
2022/05/07 10:42:39;;;;;;;4.53;1.33;;;29.50;57.00;;;;;;5013572;28;20089;-68
2022/05/07 10:45:22;;;;;;;5.70;1.25;;;29.50;57.20;;;;;;5012689;28;20037;-66
2022/05/07 10:47:55;;;;;;;2.33;1.20;;;29.70;57.90;;;;;;5012976;28;20108;-67
2022/05/07 10:50:24;;;;;;;2.72;1.40;;;29.00;56.60;;;;;;5012001;28;20634;-67
2022/05/07 10:52:57;;;;;;;8.98;2.33;;;29.40;58.00;;;;;;5011728;28;20030;-66
2022/05/07 10:55:27;;;;;;;6.20;1.75;;;29.70;57.70;;;;;;5013551;28;20041;-66
2022/05/07 10:57:56;;;;;;;4.47;2.20;;;30.00;56.90;;;;;;5003517;28;20093;-67
2022/05/07 11:00:23;;;;;;;2.47;1.23;;;29.70;58.20;;;;;;5011035;28;20053;-67
2022/05/07 11:02:56;;;;;;;6.47;2.65;;;29.70;58.10;;;;;;5012444;28;20030;-67
2022/05/07 11:05:32;;;;;;;12.25;2.33;;;29.70;57.60;;;;;;5011707;28;20072;-67
2022/05/07 11:07:59;;;;;;;3.40;1.60;;;29.50;57.40;;;;;;5011658;28;20053;-65
2022/05/07 11:10:25;;;;;;;4.03;1.70;;;29.30;58.10;;;;;;5012339;28;20022;-62
2022/05/07 11:12:51;;;;;;;6.45;2.17;;;29.50;60.50;;;;;;5011505;28;20040;-63
2022/05/07 11:15:24;;;;;;;2.35;1.33;;;28.80;60.20;;;;;;5013142;28;20063;-63
2022/05/07 11:17:50;;;;;;;7.50;1.60;;;28.40;59.90;;;;;;5010905;28;20025;-61
2022/05/07 11:20:27;;;;;;;8.57;2.50;;;28.20;61.20;;;;;;5012139;28;20108;-62
2022/05/07 11:23:00;;;;;;;4.07;1.35;;;27.70;62.60;;;;;;5011990;28;20037;-62
2022/05/07 11:25:26;;;;;;;5.22;1.70;;;27.80;61.10;;;;;;5010967;28;20037;-62
2022/05/07 11:27:53;;;;;;;4.45;1.40;;;27.70;60.30;;;;;;5011646;28;20033;-61
2022/05/07 11:30:19;;;;;;;6.50;2.15;;;27.80;60.70;;;;;;5010759;28;20099;-61
2022/05/07 11:32:45;;;;;;;2.30;1.20;;;27.70;61.20;;;;;;5011326;28;20437;-63
2022/05/07 11:35:11;;;;;;;5.75;1.75;;;27.60;61.70;;;;;;5010247;28;20064;-61
2022/05/07 11:37:44;;;;;;;1.75;1.42;;;27.80;60.70;;;;;;5010197;28;20029;-63
2022/05/07 11:40:13;;;;;;;3.83;1.02;;;27.50;59.80;;;;;;5009962;28;20026;-64
2022/05/07 11:42:43;;;;;;;3.85;1.25;;;27.30;62.20;;;;;;5010802;28;20034;-63
2022/05/07 11:45:25;;;;;;;3.72;1.58;;;27.30;62.50;;;;;;5010869;28;20052;-65
2022/05/07 11:48:08;;;;;;;4.38;2.20;;;27.30;61.50;;;;;;5011451;28;20041;-61
2022/05/07 11:50:50;;;;;;;5.50;1.90;;;27.40;62.00;;;;;;5010619;28;20448;-63
2022/05/07 11:53:17;;;;;;;6.32;1.90;;;27.50;62.30;;;;;;5011488;28;20471;-75
2022/05/07 11:55:46;;;;;;;3.60;1.58;;;27.40;59.60;;;;;;5010394;28;20072;-72
2022/05/07 11:58:23;;;;;;;3.15;1.10;;;27.30;60.00;;;;;;5013086;28;20037;-74
2022/05/07 12:00:57;;;;;;;4.05;1.42;;;27.20;61.80;;;;;;5008971;28;20025;-73
2022/05/07 12:03:25;;;;;;;7.85;1.90;;;27.30;61.30;;;;;;5010978;28;20045;-73
2022/05/07 12:05:52;;;;;;;4.43;1.92;;;27.00;61.30;;;;;;5011618;28;20357;-73
2022/05/07 12:08:20;;;;;;;3.03;1.70;;;26.50;64.40;;;;;;5010851;28;20033;-73
2022/05/07 12:10:48;;;;;;;4.75;1.63;;;26.10;62.70;;;;;;5011860;28;20053;-74
2022/05/07 12:13:15;;;;;;;6.32;1.38;;;26.40;62.10;;;;;;5010371;28;20037;-73
2022/05/07 12:18:27;;;;;;;4.00;1.13;;;26.80;61.20;;;;;;5011795;28;20055;-73
2022/05/07 12:20:53;;;;;;;3.80;1.25;;;26.60;61.10;;;;;;5009788;28;20179;-73
2022/05/07 12:31:36;;;;;;;7.70;1.10;;;27.20;62.00;;;;;;5010487;28;20120;-70
2022/05/07 12:34:02;;;;;;;3.17;1.17;;;27.50;62.70;;;;;;5009381;28;20129;-69
2022/05/07 12:36:28;;;;;;;4.00;1.00;;;27.60;61.10;;;;;;5009906;28;20077;-68
2022/05/07 12:38:54;;;;;;;3.28;1.02;;;27.50;58.90;;;;;;5008886;28;20128;-68
2022/05/07 12:41:20;;;;;;;5.15;1.05;;;27.60;59.70;;;;;;5011503;28;20026;-70
2022/05/07 12:43:46;;;;;;;1.70;1.05;;;27.90;60.30;;;;;;5009939;28;20045;-70
2022/05/07 12:46:12;;;;;;;3.60;0.98;;;28.20;59.50;;;;;;5005011;28;20029;-70
2022/05/07 12:48:38;;;;;;;2.20;1.27;;;28.30;59.60;;;;;;5009414;28;20382;-68
2022/05/07 12:51:03;;;;;;;3.55;2.08;;;28.10;59.20;;;;;;5008911;28;20037;-70
2022/05/07 12:53:29;;;;;;;4.03;2.22;;;28.20;60.70;;;;;;5010369;28;20053;-69
2022/05/07 12:55:55;;;;;;;2.88;1.42;;;28.00;62.20;;;;;;5008740;28;20361;-69
2022/05/07 12:58:20;;;;;;;4.10;1.65;;;28.10;60.40;;;;;;5009957;28;20042;-69
2022/05/07 13:00:46;;;;;;;2.78;1.38;;;28.00;61.50;;;;;;5008393;28;20030;-73
2022/05/07 13:03:12;;;;;;;2.10;1.70;;;27.90;61.10;;;;;;5003779;28;20136;-68
2022/05/07 13:05:38;;;;;;;1.88;1.13;;;27.80;60.60;;;;;;5002809;28;20046;-69
2022/05/07 13:08:05;;;;;;;5.13;1.70;;;27.50;60.70;;;;;;4991776;28;20041;-69
2022/05/07 13:10:33;;;;;;;2.35;1.10;;;27.10;61.50;;;;;;5006692;28;20038;-69
2022/05/07 13:13:02;;;;;;;1.67;0.65;;;27.30;60.40;;;;;;4996498;28;20117;-82
2022/05/07 13:15:28;;;;;;;2.90;0.93;;;27.60;59.70;;;;;;5002452;28;20029;-81
2022/05/07 13:17:59;;;;;;;1.98;1.02;;;27.50;60.00;;;;;;5010898;28;20176;-81
2022/05/07 13:20:25;;;;;;;3.75;1.00;;;27.80;60.50;;;;;;5009791;28;20045;-80
2022/05/07 13:22:52;;;;;;;2.28;1.20;;;27.80;59.70;;;;;;5006166;28;20038;-77
2022/05/07 13:25:19;;;;;;;4.97;1.08;;;27.80;59.80;;;;;;5002235;28;20023;-80
2022/05/07 13:27:48;;;;;;;1.60;0.90;;;27.80;60.50;;;;;;4995170;28;20053;-78
2022/05/07 13:30:15;;;;;;;5.32;1.08;;;27.80;60.00;;;;;;4998999;28;20027;-76
2022/05/07 13:32:41;;;;;;;9.00;1.38;;;27.50;60.30;;;;;;5011510;28;20041;-79
2022/05/07 13:35:08;;;;;;;3.80;0.88;;;27.50;59.90;;;;;;5009201;28;20363;-78
2022/05/07 13:37:35;;;;;;;1.52;0.85;;;27.30;59.50;;;;;;5009735;28;20036;-80